Weather observations for the past three days for
La Grange, Fayette Regional Air Center Airport
Metric (Imperial)
Date Time (cdt) Wind (kph) Vis. (km) Weather Sky Cond. Temperature (ºC) Relative Humidity Wind Chill (°C) Heat Index (°C) Pressure Precipitation (cm)
Air Dwpt 6 hour altimeter (cm) sea level (mb) 1 hr 3 hr 6 hr
Max. Min.
06 13:35 SW 7 16.09 Mostly Cloudy BKN100 33.2 21.2 49% 36 75.97 0.0
06 13:15 Calm 16.09 Mostly Cloudy BKN100 33.4 21.4 49% 37 76 0.0
06 12:55 Vrbl 7 16.09 Partly Cloudy SCT100 33.7 21.5 34.5 25.3 49% 37 76 0.0
06 12:35 Calm 16.09 Mostly Cloudy FEW065 BKN100 33.6 20.9 47% 37 76.02 0.0
06 12:15 Vrbl 7 16.09 Overcast SCT043 BKN065 OVC095 33.4 21.4 49% 37 76.05 0.0
06 11:55 Vrbl 6 16.09 Mostly Cloudy SCT041 BKN090 33.4 22.3 52% 38 76.1 0.0
06 11:35 SW 7 16.09 Overcast BKN040 BKN070 OVC090 32.9 22.8 55% 38 76.1 0.0
06 11:15 Vrbl 6 16.09 Overcast OVC070 31.7 22.7 59% 36 76.1 0.0
06 10:55 Calm 16.09 Mostly Cloudy BKN075 31.2 23.6 64% 36 76.1 0.0
06 10:35 S 11 16.09 A Few Clouds FEW170 30.9 23.8 66% 36 76.1 0.0
06 10:15 S 13 16.09 Partly Cloudy FEW022 SCT170 30.2 24.4 71% 36 76.1 0.0
06 09:55 S 7 16.09 A Few Clouds FEW170 28.9 24.8 79% 34 76.07 0.0
06 09:35 S 9 16.09 A Few Clouds FEW170 29.1 25.2 80% 35 76.07 0.0
06 09:15 Vrbl 7 16.09 A Few Clouds FEW170 28.3 25.6 85% 34 76.07 0.0
06 08:55 E 6 16.09 Mostly Cloudy BKN170 27.7 25.6 88% 33 76.07 0.0
06 08:35 SE 7 16.09 Overcast OVC170 27 25.6 92% 31 76.05 0.0
06 08:15 Calm 16.09 Overcast OVC170 26.2 25.4 95% 29 76.05 0.0
06 07:55 Calm 14.48 Overcast OVC160 25.7 25 96% 27 76.02 0.0
06 07:35 Calm 14.48 Mostly Cloudy BKN160 25.6 25 97% 27 76 0.0
06 07:15 SE 6 12.87 A Few Clouds FEW170 25.4 24.7 96% 27 75.97 0.0
06 06:55 S 7 14.48 Mostly Cloudy BKN160 25.3 24.6 27.4 25.3 96% 26 75.95 0.0
06 06:35 Calm 14.48 Mostly Cloudy BKN160 25.4 24.7 96% 27 75.92 0.0
06 06:15 SE 6 16.09 Fair CLR 25.4 24.7 96% 27 75.92 0.0
06 05:55 E 6 16.09 Fair CLR 25.5 24.6 95% 27 75.9 0.0
06 05:35 Calm 16.09 Fair CLR 25.6 24.8 95% 27 75.9 0.0
06 05:15 Calm 16.09 Partly Cloudy SCT200 25.7 24.7 94% 27 75.92 0.0
06 04:55 Calm 16.09 Mostly Cloudy FEW110 SCT170 BKN200 26.2 24.8 92% 29 75.9 0.0
06 04:35 Calm 16.09 Mostly Cloudy FEW016 BKN200 26.4 24.8 91% 29 75.9 0.0
06 04:15 Calm 16.09 Mostly Cloudy SCT016 BKN200 26.3 24.9 92% 29 75.9 0.0
06 03:55 Calm 16.09 Overcast FEW180 OVC200 26.8 24.8 89% 30 75.87 0.0
06 03:35 Calm 16.09 Overcast FEW180 OVC200 26.7 24.9 90% 30 75.87 0.0
06 03:15 Calm 16.09 Overcast OVC200 27 24.8 88% 31 75.9 0.0
06 02:55 Calm 16.09 Overcast OVC200 27.3 24.6 85% 31 75.92 0.0
06 02:35 SW 6 16.09 Overcast OVC200 27.3 24.7 86% 31 75.92 0.0
06 02:15 S 7 16.09 Overcast OVC200 27.4 24.6 85% 31 75.95 0.0
06 01:55 S 6 16.09 Overcast OVC200 27.4 24.5 84% 31 75.97 0.0
06 01:35 S 7 16.09 Overcast FEW160 OVC190 27.4 24.5 84% 31 75.97 0.0
06 01:15 S 9 16.09 Mostly Cloudy BKN160 27.4 24.4 84% 31 75.95 0.0
06 00:55 S 9 16.09 Mostly Cloudy BKN220 27.5 24.3 34.2 27.5 83% 31 75.95 0.0
06 00:35 S 7 16.09 Partly Cloudy SCT220 27.6 24.3 82% 31 75.97 0.0
06 00:15 SE 6 16.09 A Few Clouds FEW230 27.9 24.1 80% 32 75.97 0.0
05 23:55 S 11 16.09 Mostly Cloudy BKN230 28.1 24.2 79% 32 75.97 0.0
05 23:35 S 9 16.09 Overcast OVC220 28.4 24 77% 33 76 0.0
05 23:15 SE 7 16.09 Mostly Cloudy BKN210 28.4 23.6 75% 32 75.97 0.0
05 22:55 SE 9 16.09 Partly Cloudy SCT200 28.5 23.8 76% 33 75.97 0.0
05 22:35 SE 6 16.09 Fair CLR 28.6 23.7 75% 33 75.95 0.0
05 22:15 SE 9 16.09 A Few Clouds FEW260 28.9 23.9 74% 33 75.95 0.0
05 21:55 SE 7 16.09 Partly Cloudy SCT260 29.4 23.7 71% 34 75.95 0.0
05 21:35 SE 9 16.09 A Few Clouds FEW280 29.7 23.6 70% 34 75.92 0.0
05 21:15 E 7 16.09 Partly Cloudy SCT280 30.1 23.4 67% 35 75.9 0.0
05 20:55 E 7 16.09 Fair CLR 30.6 23.1 64% 35 75.84 0.0
05 20:35 SE 11 16.09 Fair CLR 31.1 22.9 62% 35 75.84 0.0
05 20:15 SE 9 16.09 Fair CLR 31.5 22.8 60% 36 75.82 0.0
05 19:55 SE 15 16.09 Fair CLR 32 22.7 58% 36 75.79 0.0
05 19:35 SE 19 16.09 Fair CLR 32.6 22 54% 37 75.82 0.0
05 19:15 SE 15 16.09 Fair CLR 33.9 20.6 46% 37 75.82 0.0
05 18:15 E 11 16.09 Fair CLR 35.9 19.8 39% 39 75.79 0.0
05 17:55 Vrbl 9 16.09 Fair CLR 35.9 20.1 40% 39 75.79 0.0
05 17:35 Vrbl 9 16.09 Fair CLR 35.9 20.1 40% 39 75.79 0.0
05 17:15 E 11 16.09 Fair CLR 35.8 20.5 41% 39 75.77 0.0
05 16:55 Vrbl 7 16.09 Fair CLR 35.6 21 43% 39 75.79 0.0
05 16:35 E 9 16.09 Fair CLR 35.7 21.3 43% 40 75.79 0.0
05 16:15 E 13 16.09 Fair CLR 35.7 21.5 44% 40 75.79 0.0
05 15:55 SE 15 16.09 Fair CLR 35.6 21.9 45% 40 75.82 0.0
05 15:35 E 15 16.09 Fair CLR 35.8 22 45% 40 75.84 0.0
05 15:15 SE 13 16.09 Fair CLR 35.6 21.8 45% 40 75.87 0.0
05 14:55 Vrbl 11 16.09 A Few Clouds FEW120 35.7 21.2 43% 40 75.87 0.0
05 12:55 Calm 16.09 Mostly Cloudy BKN048 BKN065 33.7 22.2 33.8 24.1 51% 38 76.02 0.0
05 12:35 W 9 16.09 Mostly Cloudy SCT048 BKN060 BKN080 BKN090 32.7 22.4 55% 37 76.05 0.0
05 12:15 Vrbl 6 16.09 Mostly Cloudy FEW060 SCT080 BKN100 32.6 22.6 56% 37 76.07 0.0
05 11:55 S 7 16.09 Partly Cloudy SCT090 SCT110 31.5 22.6 59% 36 76.1 0.0
05 11:35 W 6 16.09 Partly Cloudy FEW034 SCT090 32 23.1 59% 37 76.1 0.0
05 11:15 SW 7 16.09 Mostly Cloudy SCT028 BKN034 31.7 23.4 61% 37 76.1 0.0
05 10:55 Vrbl 9 16.09 Mostly Cloudy BKN029 31.4 24.2 66% 37 76.1 0.0
05 10:35 Calm 16.09 Partly Cloudy FEW022 SCT029 SCT039 30.2 24.6 72% 36 76.1 0.0
05 10:15 Vrbl 7 16.09 A Few Clouds FEW021 29.6 25.1 77% 36 76.1 0.0
05 09:55 S 9 16.09 A Few Clouds FEW012 29.3 25.8 81% 36 76.07 0.0
05 09:35 Vrbl 6 16.09 A Few Clouds FEW012 29 26 84% 36 76.1 0.0
05 09:15 Calm 16.09 Fair CLR 28.1 26 88% 34 76.1 0.0
05 08:55 Calm 16.09 Fair CLR 26.8 25.5 93% 30 76.1 0.0
05 08:35 Calm 14.48 Fair CLR 26.4 25.4 94% 29 76.07 0.0
05 08:15 Calm 14.48 A Few Clouds FEW016 25.5 25 97% 27 76.07 0.0
05 07:55 Calm 14.48 Fair CLR 24.5 24.3 99% 24 76.05 0.0
05 06:35 Calm 16.09 Fair CLR 24.4 24.2 99% 24 76 0.0
05 06:15 Calm 16.09 Fair CLR 24.3 24.1 99% 23 75.97 0.0
05 05:55 Calm 16.09 Fair CLR 24.4 24.2 99% 24 75.97 0.0
05 05:35 Calm 16.09 Fair CLR 24.5 24.2 98% 24 75.97 0.0
05 05:15 Calm 16.09 Fair CLR 24.5 24.2 98% 24 75.97 0.0
05 04:55 Calm 16.09 Fair CLR 24.5 24.2 98% 24 75.97 0.0
05 04:35 Calm 14.48 Fair CLR 24.5 24.2 98% 24 75.97 0.0
05 04:15 Calm 14.48 Fair CLR 24.6 24.3 98% 24 75.97 0.0
05 03:55 Calm 14.48 Fair CLR 25.1 24.4 96% 26 75.97 0.0
05 03:35 SW 6 14.48 Fair CLR 25.2 24.6 96% 26 75.95 0.0
05 03:15 S 6 14.48 Fair CLR 25.1 24.4 96% 26 75.97 0.0
05 02:55 Calm 14.48 Fair CLR 24.9 24.4 97% 25 75.97 0.0
05 02:35 Calm 16.09 Fair CLR 25.3 24.4 95% 26 76 0.0
05 02:15 Calm 16.09 Fair CLR 25.3 24.3 94% 26 76 0.0
05 01:55 S 6 16.09 Fair CLR 25.5 24.4 94% 27 76.02 0.0
05 01:35 S 6 16.09 Fair CLR 25.7 24.4 93% 27 76.02 0.0
05 01:15 S 6 16.09 Fair CLR 25.9 24.4 91% 28 76.02 0.0
05 00:55 S 7 16.09 Mostly Cloudy BKN170 26.3 24.5 31.1 26.3 90% 29 76.02 0.0
05 00:35 S 7 16.09 Overcast OVC170 26.5 24.4 88% 29 76.02 0.0
05 00:15 S 7 16.09 Mostly Cloudy BKN160 26.5 24.2 87% 29 76.02 0.0
04 23:55 S 7 16.09 Fair CLR 26.7 24.2 86% 30 76.02 0.0
04 23:35 S 7 16.09 Fair CLR 26.8 24 85% 30 76.05 0.0
04 23:15 SE 11 16.09 Fair CLR 27.2 23.8 82% 30 76.05 0.0
04 22:55 SE 9 16.09 Fair CLR 27.1 23.4 80% 30 76.02 0.0
04 22:35 SE 9 16.09 Fair CLR 27.3 23.4 79% 30 76.02 0.0
04 22:15 SE 9 8.05 Fair with Haze CLR 27.4 23.6 80% 31 76.02 0.0
04 21:55 SE 7 16.09 Fair CLR 27.5 23.7 80% 31 76 0.0
04 21:35 SE 7 16.09 Fair CLR 27.7 23.8 79% 31 76 0.0
04 21:15 SE 6 16.09 Fair CLR 27.9 23.8 78% 32 76 0.0
04 20:55 SE 7 16.09 Fair CLR 28.3 23.8 77% 32 75.95 0.0
04 20:35 SE 6 16.09 Fair CLR 28.5 23.9 76% 33 75.95 0.0
04 20:15 SE 7 16.09 Fair CLR 29 23.9 74% 33 75.95 0.0
04 19:55 SE 9 14.48 Fair CLR 29.8 23.9 71% 35 75.92 0.0
04 19:35 SE 7 14.48 Fair CLR 30.3 23.8 68% 35 75.92 0.0
04 19:15 SE 13 14.48 Fair CLR 30.7 23.8 67% 36 75.92 0.0
04 18:55 SE 19 14.48 Fair CLR 31.8 23.4 33.8 29 61% 37 75.9 0.0 0.03
04 18:35 SE 15 14.48 Fair CLR 31.9 22.5 58% 36 75.9 0.0
04 18:15 SE 7 16.09 Fair CLR 32 22.4 57% 36 75.9 0.0
04 17:55 E 9 14.48 Fair CLR 31.7 22.4 58% 36 75.92 0.0
04 17:35 SE 11 16.09 Fair CLR 31.9 22.8 59% 36 75.92 0.0
04 17:15 SE 13 16.09 Fair CLR 31.2 22.8 61% 36 75.92 0.0
04 16:55 E 11 16.09 Fair CLR 30.3 23.2 66% 35 75.95 0.0
04 16:35 SE 15 16.09 Fair CLR 29.5 22.7 67% 33 75.97 0.0
04 16:15 SE 11 11.27 Light Rain CLR 29 22.8 69% 33 75.97 0.0
04 15:55 S 17 14.48 Light Rain CLR 29.6 22.8 67% 33 75.97 0.0 0.03
04 15:35 SE 17 16.09 Fair CLR 31.1 23.7 65% 36 75.97 0.0
04 15:15 SE 15 16.09 A Few Clouds FEW200 31.3 23.7 64% 37 75.97 0.0
04 14:55 Vrbl 11 16.09 A Few Clouds FEW260 31.4 23.5 63% 37 76.02 0.0
04 14:35 E 19 16.09 Partly Cloudy FEW260 SCT340 31.8 22.8 59% 36 76.02 0.0
04 14:15 E 15 16.09 Partly Cloudy SCT046 SCT350 33.6 23.7 56% 40 76.02 0.0
04 13:55 E 11 16.09 Partly Cloudy FEW050 SCT120 32 23.1 59% 37 76.02 0.0 0.03
04 13:35 Calm 16.09 Partly Cloudy SCT110 31.9 22.9 59% 37 76.05 0.0 0.03
04 13:15 NW 6 14.48 Mostly Cloudy FEW041 BKN049 BKN100 32.3 24 62% 38 76.05 0.0 0.03
04 12:55 N 7 16.09 Mostly Cloudy BKN042 BKN130 32 23.8 32.7 26 62% 38 76.07 0.0
04 12:35 Vrbl 6 16.09 Mostly Cloudy SCT044 BKN130 32.6 23.6 59% 38 76.1 0.0
04 12:15 Vrbl 7 16.09 Mostly Cloudy FEW047 BKN120 31.9 23.6 61% 37 76.1 0.0
04 11:55 SW 7 16.09 Mostly Cloudy FEW030 SCT042 BKN055 BKN075 30.8 24.1 67% 36 76.12 0.0
04 11:35 Vrbl 6 16.09 Mostly Cloudy SCT027 BKN037 BKN120 31 23.9 66% 36 76.12 0.0
04 11:15 SW 7 16.09 Mostly Cloudy BKN025 BKN140 31.4 24.5 67% 38 76.12 0.0
04 10:35 SE 7 16.09 Mostly Cloudy BKN016 30 25.6 77% 37 76.1 0.0
04 10:15 Calm 16.09 Partly Cloudy FEW010 SCT018 28.9 25.9 84% 35 76.1 0.0
04 09:55 Vrbl 6 16.09 A Few Clouds FEW010 28.3 26.2 88% 34 76.1 0.0
04 09:35 SE 6 14.48 A Few Clouds FEW140 27.8 26.2 91% 33 76.1 0.0
04 09:15 Calm 14.48 Mostly Cloudy BKN150 27.4 26.1 93% 32 76.07 0.0
04 08:55 Calm 12.87 Mostly Cloudy SCT110 BKN150 26.9 25.7 93% 31 76.07 0.0
04 08:35 SE 6 14.48 Mostly Cloudy SCT120 BKN150 26.7 25.8 95% 30 76.05 0.0
04 08:15 S 9 14.48 Mostly Cloudy SCT110 BKN150 26.5 25.7 95% 30 76.02 0.0
04 07:55 S 7 16.09 A Few Clouds FEW150 26.3 25.5 95% 29 76.02 0.0
04 07:35 SW 7 16.09 Mostly Cloudy FEW120 BKN150 26.1 25.4 96% 29 76 0.0
04 07:15 S 9 14.48 Partly Cloudy SCT120 26 25.5 97% 28 76 0.0
04 06:55 S 7 14.48 Light Rain CLR 26.2 25.5 26.8 26 96% 29 75.97 0.0 0.05
04 06:35 S 7 16.09 Fair CLR 26.4 25.5 95% 29 76 0.0
04 06:15 S 7 16.09 A Few Clouds FEW120 26.2 25.3 95% 29 76 0.0
04 05:55 S 11 16.09 A Few Clouds FEW120 26.5 25.4 94% 30 76 0.0 0.05
04 05:35 S 9 12.87 A Few Clouds FEW085 26.3 25.5 95% 29 76 0.0 0.05
04 05:15 SE 6 8.05 Light Rain Fog/Mist FEW018 BKN085 BKN100 26.1 25.3 95% 29 76 0.0 0.03
04 04:55 SE 7 16.09 Overcast BKN100 OVC130 26.1 25.1 94% 28 75.97 0.0
04 04:35 SE 6 16.09 Overcast FEW018 OVC130 26.1 25.1 94% 28 75.97 0.0
04 04:15 E 6 16.09 Overcast OVC140 26.1 25 94% 28 75.97 0.0
04 03:55 E 7 16.09 Overcast FEW020 SCT027 BKN032 OVC140 26.1 24.9 93% 28 75.97 0.0
04 03:35 E 6 16.09 Overcast FEW019 SCT025 BKN031 BKN140 OVC170 26.2 24.8 92% 29 75.97 0.0
04 03:15 E 6 16.09 Overcast SCT024 BKN140 BKN170 OVC220 26.4 24.8 91% 29 75.95 0.0
04 02:55 Calm 16.09 Overcast SCT022 BKN100 BKN180 OVC220 26.3 24.7 91% 29 75.97 0.0
04 02:35 Calm 16.09 Overcast FEW021 BKN100 OVC180 26.4 24.6 90% 29 75.97 0.0
04 02:15 Calm 16.09 Overcast FEW100 SCT150 OVC180 26.5 24.6 89% 29 75.97 0.0
04 01:55 Calm 16.09 Overcast SCT100 BKN150 OVC180 26.5 24.7 90% 29 76 0.0
04 01:35 SE 6 16.09 Overcast SCT100 BKN150 OVC180 26.5 24.6 89% 29 76 0.0
04 01:15 S 6 16.09 Overcast OVC150 26.6 24.4 88% 29 76 0.0
04 00:55 S 7 16.09 Mostly Cloudy FEW150 BKN180 26.8 24.5 27.4 26.8 87% 30 76 0.0
04 00:35 SE 7 16.09 Mostly Cloudy SCT150 BKN180 26.9 24.4 86% 30 75.97 0.0
04 00:15 S 9 16.09 Mostly Cloudy BKN180 27 24.3 85% 30 75.97 0.0
03 23:55 SE 7 16.09 Mostly Cloudy FEW150 BKN180 26.9 24.4 86% 30 75.97 0.0
03 23:35 SE 9 16.09 Overcast FEW150 OVC180 26.9 24.4 86% 30 75.97 0.0
03 23:15 SE 9 16.09 Overcast SCT150 OVC170 27 24.3 85% 30 75.97 0.0
03 22:55 SE 9 16.09 Overcast OVC170 27 24.3 85% 30 75.97 0.0
03 22:35 SE 11 16.09 Overcast OVC160 27 24.3 85% 30 75.97 0.0
03 22:15 SE 11 16.09 Overcast OVC160 27.1 24.2 84% 30 75.97 0.0
03 21:55 SE 11 16.09 Overcast OVC150 27.1 24.1 84% 30 75.95 0.0
03 21:35 SE 11 16.09 Overcast OVC150 27.1 24.2 84% 30 75.95 0.0
03 21:15 SE 13 16.09 Overcast OVC160 27.1 24.1 84% 30 75.92 0.0
03 20:55 SE 15 16.09 Overcast OVC180 27 23.9 83% 30 75.9 0.0
03 20:35 SE 11 16.09 Overcast BKN160 OVC180 26.9 24.1 85% 30 75.9 0.0
03 20:15 SE 9 16.09 Overcast BKN160 OVC180 26.8 24.1 85% 30 75.9 0.0
03 19:55 Vrbl 9 16.09 Overcast OVC180 27 23.9 83% 30 75.9 0.0
03 19:35 SE 15 16.09 Mostly Cloudy BKN180 27.1 23.8 82% 30 75.9 0.0
03 19:15 SE 19 16.09 Mostly Cloudy BKN180 27.3 23.7 81% 31 75.87 0.0
03 18:55 SE 20 16.09 Overcast OVC180 27.5 23.6 36.4 27.3 79% 31 75.9 0.0
03 18:35 SE 13 16.09 Overcast OVC180 27.7 23.8 79% 31 75.9 0.0
03 18:15 Vrbl 9 16.09 Overcast OVC180 27.8 23.8 79% 31 75.87 0.0
03 17:55 SE 17 16.09 Mostly Cloudy BKN170 27.6 23.4 78% 31 75.87 0.0
03 17:35 SE 13 16.09 Partly Cloudy FEW160 SCT180 27.4 23.4 79% 31 75.87 0.0
03 17:15 SE 11 16.09 Partly Cloudy SCT180 27.6 23.2 77% 31 75.87 0.0
03 16:55 SE 17 G 28 16.09 A Few Clouds FEW160 27.9 23.5 77% 31 75.87 0.0
03 16:35 SE 19 G 33 16.09 A Few Clouds FEW160 27.7 23.7 79% 31 75.9 0.0
03 16:15 SE 22 G 44 16.09 Partly Cloudy FEW060 SCT080 SCT340 28 23.3 76% 31 75.9 0.0
03 15:35 E 13 16.09 Mostly Cloudy BKN065 34.9 22 47% 39 75.87 0.0
03 15:15 NE 13 16.09 Mostly Cloudy FEW065 BKN190 35.8 21.1 42% 40 75.87 0.0
03 14:55 Vrbl 7 16.09 Mostly Cloudy BKN100 BKN190 36.1 21 41% 40 75.9 0.0
03 14:35 Vrbl 7 16.09 Mostly Cloudy BKN100 BKN200 35.5 20.9 43% 39 75.9 0.0
03 14:15 S 13 16.09 A Few Clouds FEW100 35.7 21.9 45% 40 75.92 0.0
Date Time (cdt) Wind (kph) Vis. (km) Weather Sky Cond. Air Dwpt Max. Min. Relative Humidity Wind Chill (°C) Heat Index (°C) altimeter (cm) sea level (mb) 1 hr 3 hr 6 hr
6 hour
Temperature (ºC) Pressure Precipitation (cm)